sensor_id;sensor_type;location;lat;lon;timestamp;pressure;altitude;pressure_sealevel;temperature;humidity
56514;BME280;62152;52.078;8.414;2022-09-09T00:00:40;99411.31;;;22.29;52.33
56514;BME280;62152;52.078;8.414;2022-09-09T00:02:28;99421.16;;;22.30;52.11
56514;BME280;62152;52.078;8.414;2022-09-09T00:04:19;99416.84;;;22.29;52.31
56514;BME280;62152;52.078;8.414;2022-09-09T00:06:16;99413.28;;;22.28;52.15
56514;BME280;62152;52.078;8.414;2022-09-09T00:08:20;99410.53;;;22.28;52.33
56514;BME280;62152;52.078;8.414;2022-09-09T00:10:16;99413.72;;;22.27;52.13
56514;BME280;62152;52.078;8.414;2022-09-09T00:12:11;99413.72;;;22.27;52.22
56514;BME280;62152;52.078;8.414;2022-09-09T00:14:03;99407.41;;;22.26;52.23
56514;BME280;62152;52.078;8.414;2022-09-09T00:16:00;99413.28;;;22.28;52.19
56514;BME280;62152;52.078;8.414;2022-09-09T00:17:52;99416.06;;;22.28;52.21
56514;BME280;62152;52.078;8.414;2022-09-09T00:19:45;99402.66;;;22.27;52.27
56514;BME280;62152;52.078;8.414;2022-09-09T00:21:35;99405.06;;;22.25;52.14
56514;BME280;62152;52.078;8.414;2022-09-09T00:23:24;99420.78;;;22.28;52.31
56514;BME280;62152;52.078;8.414;2022-09-09T00:25:14;99421.22;;;22.26;52.15
56514;BME280;62152;52.078;8.414;2022-09-09T00:27:09;99422.00;;;22.27;52.32
56514;BME280;62152;52.078;8.414;2022-09-09T00:29:05;99417.66;;;22.26;52.11
56514;BME280;62152;52.078;8.414;2022-09-09T00:30:55;99430.28;;;22.27;52.08
56514;BME280;62152;52.078;8.414;2022-09-09T00:32:40;99424.75;;;22.27;52.27
56514;BME280;62152;52.078;8.414;2022-09-09T00:34:28;99423.19;;;22.26;52.36
56514;BME280;62152;52.078;8.414;2022-09-09T00:36:16;99420.44;;;22.26;52.14
56514;BME280;62152;52.078;8.414;2022-09-09T00:38:12;99417.66;;;22.26;52.37
56514;BME280;62152;52.078;8.414;2022-09-09T00:40:02;99417.66;;;22.26;52.12
56514;BME280;62152;52.078;8.414;2022-09-09T00:42:05;99407.03;;;22.24;52.10
56514;BME280;62152;52.078;8.414;2022-09-09T00:44:11;99417.66;;;22.26;52.33
56514;BME280;62152;52.078;8.414;2022-09-09T00:48:35;99409.38;;;22.26;52.26
56514;BME280;62152;52.078;8.414;2022-09-09T00:50:38;99409.38;;;22.26;52.21
56514;BME280;62152;52.078;8.414;2022-09-09T00:52:39;99405.06;;;22.25;52.15
56514;BME280;62152;52.078;8.414;2022-09-09T00:54:43;99403.09;;;22.25;52.15
56514;BME280;62152;52.078;8.414;2022-09-09T00:56:37;99403.09;;;22.25;52.09
56514;BME280;62152;52.078;8.414;2022-09-09T00:58:23;99390.47;;;22.24;52.25
56514;BME280;62152;52.078;8.414;2022-09-09T01:00:22;99404.28;;;22.24;52.19
56514;BME280;62152;52.078;8.414;2022-09-09T01:02:16;99405.84;;;22.25;52.34
56514;BME280;62152;52.078;8.414;2022-09-09T01:04:07;99412.56;;;22.24;52.19
56514;BME280;62152;52.078;8.414;2022-09-09T01:06:14;99403.50;;;22.24;52.08
56514;BME280;62152;52.078;8.414;2022-09-09T01:08:02;99397.97;;;22.24;52.32
56514;BME280;62152;52.078;8.414;2022-09-09T01:09:56;99399.53;;;22.25;52.12
56514;BME280;62152;52.078;8.414;2022-09-09T01:11:51;99403.50;;;22.24;52.29
56514;BME280;62152;52.078;8.414;2022-09-09T01:13:41;99401.53;;;22.24;52.30
56514;BME280;62152;52.078;8.414;2022-09-09T01:15:32;99403.50;;;22.24;52.11
56514;BME280;62152;52.078;8.414;2022-09-09T01:17:24;99399.16;;;22.23;52.24
56514;BME280;62152;52.078;8.414;2022-09-09T01:19:24;99390.88;;;22.23;52.18
56514;BME280;62152;52.078;8.414;2022-09-09T01:21:22;99385.34;;;22.23;52.11
56514;BME280;62152;52.078;8.414;2022-09-09T01:23:37;99397.16;;;22.23;52.11
56514;BME280;62152;52.078;8.414;2022-09-09T01:26:08;99399.94;;;22.23;52.28
56514;BME280;62152;52.078;8.414;2022-09-09T01:27:58;99397.16;;;22.23;52.14
56514;BME280;62152;52.078;8.414;2022-09-09T01:29:44;99397.16;;;22.23;52.13
56514;BME280;62152;52.078;8.414;2022-09-09T01:31:36;99392.84;;;22.22;52.26
56514;BME280;62152;52.078;8.414;2022-09-09T01:33:22;99397.97;;;22.24;52.16
56514;BME280;62152;52.078;8.414;2022-09-09T01:35:13;99396.38;;;22.23;52.31
56514;BME280;62152;52.078;8.414;2022-09-09T01:37:03;99408.22;;;22.23;52.26
56514;BME280;62152;52.078;8.414;2022-09-09T01:38:49;99397.16;;;22.23;52.22
56514;BME280;62152;52.078;8.414;2022-09-09T01:40:32;99393.63;;;22.23;52.24
56514;BME280;62152;52.078;8.414;2022-09-09T01:42:20;99385.34;;;22.23;52.22
56514;BME280;62152;52.078;8.414;2022-09-09T01:44:06;99399.16;;;22.23;52.15
56514;BME280;62152;52.078;8.414;2022-09-09T01:45:56;99399.16;;;22.23;52.16
56514;BME280;62152;52.078;8.414;2022-09-09T01:47:43;99399.16;;;22.23;52.24
56514;BME280;62152;52.078;8.414;2022-09-09T01:49:34;99395.59;;;22.22;52.09
56514;BME280;62152;52.078;8.414;2022-09-09T01:51:26;99404.66;;;22.23;52.24
56514;BME280;62152;52.078;8.414;2022-09-09T01:53:16;99407.44;;;22.23;52.21
56514;BME280;62152;52.078;8.414;2022-09-09T01:54:59;99412.97;;;22.23;52.19
56514;BME280;62152;52.078;8.414;2022-09-09T01:57:01;99414.56;;;22.24;52.10
56514;BME280;62152;52.078;8.414;2022-09-09T01:59:04;99411.41;;;22.22;52.14
56514;BME280;62152;52.078;8.414;2022-09-09T02:01:01;99412.19;;;22.22;52.07
56514;BME280;62152;52.078;8.414;2022-09-09T02:02:56;99412.19;;;22.22;52.24
56514;BME280;62152;52.078;8.414;2022-09-09T02:05:00;99418.47;;;22.23;52.08
56514;BME280;62152;52.078;8.414;2022-09-09T02:06:55;99414.16;;;22.22;52.30
56514;BME280;62152;52.078;8.414;2022-09-09T02:08:48;99401.56;;;22.21;52.27
56514;BME280;62152;52.078;8.414;2022-09-09T02:10:42;99410.63;;;22.21;52.05
56514;BME280;62152;52.078;8.414;2022-09-09T02:12:47;99411.41;;;22.22;52.24
56514;BME280;62152;52.078;8.414;2022-09-09T02:14:40;99416.91;;;22.22;52.22
56514;BME280;62152;52.078;8.414;2022-09-09T02:16:30;99413.38;;;22.21;52.25
56514;BME280;62152;52.078;8.414;2022-09-09T02:18:25;99412.19;;;22.22;52.18
56514;BME280;62152;52.078;8.414;2022-09-09T02:20:14;99421.66;;;22.21;52.10
56514;BME280;62152;52.078;8.414;2022-09-09T02:22:10;99412.59;;;22.21;52.23
56514;BME280;62152;52.078;8.414;2022-09-09T02:23:58;99421.66;;;22.21;52.04
56514;BME280;62152;52.078;8.414;2022-09-09T02:25:48;99422.44;;;22.22;52.24
56514;BME280;62152;52.078;8.414;2022-09-09T02:27:37;99418.91;;;22.21;52.04
56514;BME280;62152;52.078;8.414;2022-09-09T02:29:26;99420.88;;;22.21;52.11
56514;BME280;62152;52.078;8.414;2022-09-09T02:31:18;99423.66;;;22.21;52.01
56514;BME280;62152;52.078;8.414;2022-09-09T02:33:08;99426.41;;;22.21;52.06
56514;BME280;62152;52.078;8.414;2022-09-09T02:35:09;99415.00;;;22.19;52.12
56514;BME280;62152;52.078;8.414;2022-09-09T02:36:57;99407.50;;;22.19;52.20
56514;BME280;62152;52.078;8.414;2022-09-09T02:38:46;99410.25;;;22.19;52.05
56514;BME280;62152;52.078;8.414;2022-09-09T02:40:36;99420.09;;;22.20;52.16
56514;BME280;62152;52.078;8.414;2022-09-09T02:42:21;99422.44;;;22.22;52.02
56514;BME280;62152;52.078;8.414;2022-09-09T02:44:09;99426.41;;;22.21;52.19
56514;BME280;62152;52.078;8.414;2022-09-09T02:46:05;99425.63;;;22.20;52.24
56514;BME280;62152;52.078;8.414;2022-09-09T02:48:04;99426.41;;;22.21;52.17
56514;BME280;62152;52.078;8.414;2022-09-09T02:50:02;99416.56;;;22.20;52.00
56514;BME280;62152;52.078;8.414;2022-09-09T02:51:54;99424.84;;;22.20;52.19
56514;BME280;62152;52.078;8.414;2022-09-09T02:53:53;99416.13;;;22.21;52.02
56514;BME280;62152;52.078;8.414;2022-09-09T02:55:47;99415.78;;;22.19;52.17
56514;BME280;62152;52.078;8.414;2022-09-09T02:57:37;99417.75;;;22.19;52.17
56514;BME280;62152;52.078;8.414;2022-09-09T02:59:25;99424.84;;;22.20;52.01
56514;BME280;62152;52.078;8.414;2022-09-09T03:01:11;99428.38;;;22.20;52.03
56514;BME280;62152;52.078;8.414;2022-09-09T03:02:59;99424.84;;;22.20;52.20
56514;BME280;62152;52.078;8.414;2022-09-09T03:04:44;99420.53;;;22.19;52.10
56514;BME280;62152;52.078;8.414;2022-09-09T03:06:33;99417.75;;;22.19;52.17
56514;BME280;62152;52.078;8.414;2022-09-09T03:08:28;99422.88;;;22.20;52.16
56514;BME280;62152;52.078;8.414;2022-09-09T03:10:14;99424.06;;;22.19;51.96
56514;BME280;62152;52.078;8.414;2022-09-09T03:11:59;99424.06;;;22.19;52.06
56514;BME280;62152;52.078;8.414;2022-09-09T03:13:45;99426.41;;;22.21;52.10
56514;BME280;62152;52.078;8.414;2022-09-09T03:15:30;99424.84;;;22.20;51.97
56514;BME280;62152;52.078;8.414;2022-09-09T03:17:15;99424.06;;;22.19;52.16
56514;BME280;62152;52.078;8.414;2022-09-09T03:19:08;99419.75;;;22.18;52.20
56514;BME280;62152;52.078;8.414;2022-09-09T03:20:53;99414.22;;;22.18;52.04
56514;BME280;62152;52.078;8.414;2022-09-09T03:22:39;99413.44;;;22.18;51.99
56514;BME280;62152;52.078;8.414;2022-09-09T03:24:25;99425.63;;;22.20;51.92
56514;BME280;62152;52.078;8.414;2022-09-09T03:26:10;99424.84;;;22.20;52.20
56514;BME280;62152;52.078;8.414;2022-09-09T03:28:00;99426.81;;;22.19;52.18
56514;BME280;62152;52.078;8.414;2022-09-09T03:29:45;99428.81;;;22.19;52.13
56514;BME280;62152;52.078;8.414;2022-09-09T03:31:35;99422.16;;;22.13;52.17
56514;BME280;62152;52.078;8.414;2022-09-09T03:33:20;99419.44;;;22.09;51.79
56514;BME280;62152;52.078;8.414;2022-09-09T03:35:08;99416.34;;;22.03;51.82
56514;BME280;62152;52.078;8.414;2022-09-09T03:36:52;99417.91;;;22.01;51.59
56514;BME280;62152;52.078;8.414;2022-09-09T03:38:37;99416.34;;;22.00;51.88
56514;BME280;62152;52.078;8.414;2022-09-09T03:40:23;99414.44;;;21.97;51.67
56514;BME280;62152;52.078;8.414;2022-09-09T03:42:09;99414.03;;;21.95;51.66
56514;BME280;62152;52.078;8.414;2022-09-09T03:43:54;99404.19;;;21.94;51.63
56514;BME280;62152;52.078;8.414;2022-09-09T03:45:41;99410.16;;;21.89;51.52
56514;BME280;62152;52.078;8.414;2022-09-09T03:47:27;99414.91;;;21.88;51.43
56514;BME280;62152;52.078;8.414;2022-09-09T03:49:19;99411.00;;;21.82;51.44
56514;BME280;62152;52.078;8.414;2022-09-09T03:51:07;99412.59;;;21.83;51.38
56514;BME280;62152;52.078;8.414;2022-09-09T03:52:52;99414.53;;;21.86;51.35
56514;BME280;62152;52.078;8.414;2022-09-09T03:54:37;99420.06;;;21.86;51.63
56514;BME280;62152;52.078;8.414;2022-09-09T03:56:24;99419.06;;;21.69;51.81
56514;BME280;62152;52.078;8.414;2022-09-09T03:58:09;99409.25;;;21.61;51.83
56514;BME280;62152;52.078;8.414;2022-09-09T03:59:54;99410.44;;;21.64;51.58
56514;BME280;62152;52.078;8.414;2022-09-09T04:01:39;99403.72;;;21.61;51.48
56514;BME280;62152;52.078;8.414;2022-09-09T04:03:25;99412.84;;;21.58;51.38
56514;BME280;62152;52.078;8.414;2022-09-09T04:05:10;99406.56;;;21.54;51.34
56514;BME280;62152;52.078;8.414;2022-09-09T04:07:00;99408.22;;;21.44;51.83
56514;BME280;62152;52.078;8.414;2022-09-09T04:08:47;99410.22;;;21.40;51.72
56514;BME280;62152;52.078;8.414;2022-09-09T04:10:34;99418.50;;;21.44;51.79
56514;BME280;62152;52.078;8.414;2022-09-09T04:12:20;99406.72;;;21.36;51.86
56514;BME280;62152;52.078;8.414;2022-09-09T04:14:05;99414.94;;;21.43;51.73
56514;BME280;62152;52.078;8.414;2022-09-09T04:15:51;99421.69;;;21.39;52.17
56514;BME280;62152;52.078;8.414;2022-09-09T04:17:36;99421.66;;;21.42;52.18
56514;BME280;62152;52.078;8.414;2022-09-09T04:19:21;99418.84;;;21.49;52.04
56514;BME280;62152;52.078;8.414;2022-09-09T04:21:06;99422.38;;;21.50;51.83
56514;BME280;62152;52.078;8.414;2022-09-09T04:22:54;99419.50;;;21.61;51.61
56514;BME280;62152;52.078;8.414;2022-09-09T04:24:38;99424.59;;;21.66;51.69
56514;BME280;62152;52.078;8.414;2022-09-09T04:26:23;99425.34;;;21.70;51.59
56514;BME280;62152;52.078;8.414;2022-09-09T04:28:08;99427.72;;;21.68;51.55
56514;BME280;62152;52.078;8.414;2022-09-09T04:29:53;99422.97;;;21.68;51.67
56514;BME280;62152;52.078;8.414;2022-09-09T04:31:38;99433.63;;;21.70;51.47
56514;BME280;62152;52.078;8.414;2022-09-09T04:33:24;99428.13;;;21.70;51.55
56514;BME280;62152;52.078;8.414;2022-09-09T04:35:11;99426.91;;;21.71;51.41
56514;BME280;62152;52.078;8.414;2022-09-09T04:36:56;99424.97;;;21.68;51.63
56514;BME280;62152;52.078;8.414;2022-09-09T04:38:45;99423.78;;;21.69;51.62
56514;BME280;62152;52.078;8.414;2022-09-09T04:40:31;99421.03;;;21.69;51.61
56514;BME280;62152;52.078;8.414;2022-09-09T04:42:16;99428.47;;;21.72;51.60
56514;BME280;62152;52.078;8.414;2022-09-09T04:44:02;99420.63;;;21.70;51.54
56514;BME280;62152;52.078;8.414;2022-09-09T04:45:50;99423.41;;;21.67;51.57
56514;BME280;62152;52.078;8.414;2022-09-09T04:47:38;99426.56;;;21.65;51.80
56514;BME280;62152;52.078;8.414;2022-09-09T04:49:22;99426.16;;;21.67;51.42
56514;BME280;62152;52.078;8.414;2022-09-09T04:51:11;99431.69;;;21.67;51.64
56514;BME280;62152;52.078;8.414;2022-09-09T04:53:00;99422.63;;;21.66;51.25
56514;BME280;62152;52.078;8.414;2022-09-09T04:54:49;99434.41;;;21.70;51.60
56514;BME280;62152;52.078;8.414;2022-09-09T04:56:33;99429.31;;;21.69;51.31
56514;BME280;62152;52.078;8.414;2022-09-09T04:58:18;99432.44;;;21.71;51.26
56514;BME280;62152;52.078;8.414;2022-09-09T05:00:05;99440.34;;;21.69;51.41
56514;BME280;62152;52.078;8.414;2022-09-09T05:01:54;99429.31;;;21.69;51.38
56514;BME280;62152;52.078;8.414;2022-09-09T05:03:38;99429.31;;;21.69;51.46
56514;BME280;62152;52.078;8.414;2022-09-09T05:05:26;99438.75;;;21.68;51.36
56514;BME280;62152;52.078;8.414;2022-09-09T05:07:11;99434.84;;;21.69;51.21
56514;BME280;62152;52.078;8.414;2022-09-09T05:08:56;99436.78;;;21.68;51.43
56514;BME280;62152;52.078;8.414;2022-09-09T05:10:47;99426.16;;;21.67;51.45
56514;BME280;62152;52.078;8.414;2022-09-09T05:12:32;99432.06;;;21.69;51.25
56514;BME280;62152;52.078;8.414;2022-09-09T05:14:17;99437.16;;;21.70;51.45
56514;BME280;62152;52.078;8.414;2022-09-09T05:16:02;99432.84;;;21.69;51.21
56514;BME280;62152;52.078;8.414;2022-09-09T05:17:47;99437.19;;;21.67;51.54
56514;BME280;62152;52.078;8.414;2022-09-09T05:19:32;99439.94;;;21.67;51.20
56514;BME280;62152;52.078;8.414;2022-09-09T05:21:19;99435.63;;;21.66;51.47
56514;BME280;62152;52.078;8.414;2022-09-09T05:23:04;99434.44;;;21.67;51.30
56514;BME280;62152;52.078;8.414;2022-09-09T05:24:49;99431.69;;;21.67;51.50
56514;BME280;62152;52.078;8.414;2022-09-09T05:26:37;99431.69;;;21.67;51.40
56514;BME280;62152;52.078;8.414;2022-09-09T05:28:23;99434.41;;;21.70;51.32
56514;BME280;62152;52.078;8.414;2022-09-09T05:30:10;99431.25;;;21.68;51.21
56514;BME280;62152;52.078;8.414;2022-09-09T05:31:54;99433.63;;;21.70;51.17
56514;BME280;62152;52.078;8.414;2022-09-09T05:33:41;99434.00;;;21.68;51.19
56514;BME280;62152;52.078;8.414;2022-09-09T05:35:28;99429.34;;;21.62;51.81
56514;BME280;62152;52.078;8.414;2022-09-09T05:37:15;99436.47;;;21.63;51.64
56514;BME280;62152;52.078;8.414;2022-09-09T05:38:59;99430.09;;;21.66;51.53
56514;BME280;62152;52.078;8.414;2022-09-09T05:40:47;99430.88;;;21.66;51.31
56514;BME280;62152;52.078;8.414;2022-09-09T05:42:36;99443.91;;;21.66;51.42
56514;BME280;62152;52.078;8.414;2022-09-09T05:44:22;99438.75;;;21.68;51.46
56514;BME280;62152;52.078;8.414;2022-09-09T05:46:11;99445.88;;;21.69;51.31
56514;BME280;62152;52.078;8.414;2022-09-09T05:47:56;99445.88;;;21.69;51.47
56514;BME280;62152;52.078;8.414;2022-09-09T05:49:42;99442.28;;;21.68;51.34
56514;BME280;62152;52.078;8.414;2022-09-09T05:51:28;99445.06;;;21.68;51.44
56514;BME280;62152;52.078;8.414;2022-09-09T05:53:17;99439.59;;;21.65;51.49
56514;BME280;62152;52.078;8.414;2022-09-09T05:55:03;99444.28;;;21.68;51.51
56514;BME280;62152;52.078;8.414;2022-09-09T05:56:48;99440.34;;;21.69;51.47
56514;BME280;62152;52.078;8.414;2022-09-09T05:58:38;99447.44;;;21.70;51.48
56514;BME280;62152;52.078;8.414;2022-09-09T06:00:25;99442.28;;;21.72;51.30
56514;BME280;62152;52.078;8.414;2022-09-09T06:02:11;99449.34;;;21.73;51.36
56514;BME280;62152;52.078;8.414;2022-09-09T06:03:56;99444.25;;;21.71;51.42
56514;BME280;62152;52.078;8.414;2022-09-09T06:05:41;99443.84;;;21.73;51.27
56514;BME280;62152;52.078;8.414;2022-09-09T06:07:26;99437.13;;;21.74;51.43
56514;BME280;62152;52.078;8.414;2022-09-09T06:09:10;99438.75;;;21.71;51.52
56514;BME280;62152;52.078;8.414;2022-09-09T06:11:01;99437.16;;;21.70;51.59
56514;BME280;62152;52.078;8.414;2022-09-09T06:12:48;99440.31;;;21.72;51.36
56514;BME280;62152;52.078;8.414;2022-09-09T06:14:35;99441.50;;;21.71;51.58
56514;BME280;62152;52.078;8.414;2022-09-09T06:16:24;99445.81;;;21.72;51.60
56514;BME280;62152;52.078;8.414;2022-09-09T06:18:09;99441.88;;;21.73;51.52
56514;BME280;62152;52.078;8.414;2022-09-09T06:19:54;99435.63;;;21.66;51.84
56514;BME280;62152;52.078;8.414;2022-09-09T06:21:39;99441.94;;;21.66;51.91
56514;BME280;62152;52.078;8.414;2022-09-09T06:23:25;99438.38;;;21.69;51.76
56514;BME280;62152;52.078;8.414;2022-09-09T06:25:10;99439.53;;;21.72;51.85
56514;BME280;62152;52.078;8.414;2022-09-09T06:26:55;99437.16;;;21.70;51.74
56514;BME280;62152;52.078;8.414;2022-09-09T06:28:44;99436.75;;;21.72;51.65
56514;BME280;62152;52.078;8.414;2022-09-09T06:30:31;99437.13;;;21.74;51.73
56514;BME280;62152;52.078;8.414;2022-09-09T06:32:16;99433.94;;;21.75;51.69
56514;BME280;62152;52.078;8.414;2022-09-09T06:34:05;99434.38;;;21.74;51.71
56514;BME280;62152;52.078;8.414;2022-09-09T06:35:51;99433.16;;;21.75;51.86
56514;BME280;62152;52.078;8.414;2022-09-09T06:37:36;99424.09;;;21.74;51.91
56514;BME280;62152;52.078;8.414;2022-09-09T06:39:21;99433.16;;;21.75;51.95
56514;BME280;62152;52.078;8.414;2022-09-09T06:41:10;99428.84;;;21.74;51.88
56514;BME280;62152;52.078;8.414;2022-09-09T06:42:59;99426.88;;;21.74;51.80
56514;BME280;62152;52.078;8.414;2022-09-09T06:44:55;99430.81;;;21.73;51.92
56514;BME280;62152;52.078;8.414;2022-09-09T06:46:51;99429.25;;;21.76;51.76
56514;BME280;62152;52.078;8.414;2022-09-09T06:48:38;99432.00;;;21.76;51.90
56514;BME280;62152;52.078;8.414;2022-09-09T06:50:25;99424.09;;;21.74;51.78
56514;BME280;62152;52.078;8.414;2022-09-09T06:52:10;99431.59;;;21.74;51.73
56514;BME280;62152;52.078;8.414;2022-09-09T06:53:56;99430.41;;;21.75;51.95
56514;BME280;62152;52.078;8.414;2022-09-09T06:55:41;99437.91;;;21.74;51.92
56514;BME280;62152;52.078;8.414;2022-09-09T06:57:27;99428.84;;;21.74;51.72
56514;BME280;62152;52.078;8.414;2022-09-09T06:59:12;99436.34;;;21.73;51.86
56514;BME280;62152;52.078;8.414;2022-09-09T07:01:03;99430.47;;;21.71;51.67
56514;BME280;62152;52.078;8.414;2022-09-09T07:02:53;99439.09;;;21.73;51.87
56514;BME280;62152;52.078;8.414;2022-09-09T07:04:38;99438.31;;;21.73;51.79
56514;BME280;62152;52.078;8.414;2022-09-09T07:06:24;99421.41;;;21.71;51.79
56514;BME280;62152;52.078;8.414;2022-09-09T07:08:09;99438.38;;;21.69;51.91
56514;BME280;62152;52.078;8.414;2022-09-09T07:09:55;99436.75;;;21.72;51.87
56514;BME280;62152;52.078;8.414;2022-09-09T07:11:42;99438.75;;;21.71;51.86
56514;BME280;62152;52.078;8.414;2022-09-09T07:13:28;99440.72;;;21.71;51.78
56514;BME280;62152;52.078;8.414;2022-09-09T07:15:13;99444.66;;;21.70;51.99
56514;BME280;62152;52.078;8.414;2022-09-09T07:17:00;99445.06;;;21.68;51.85
56514;BME280;62152;52.078;8.414;2022-09-09T07:18:53;99452.94;;;21.70;51.80
56514;BME280;62152;52.078;8.414;2022-09-09T07:20:40;99446.59;;;21.73;51.91
56514;BME280;62152;52.078;8.414;2022-09-09T07:22:24;99450.94;;;21.74;51.77
56514;BME280;62152;52.078;8.414;2022-09-09T07:24:10;99456.03;;;21.75;51.85
56514;BME280;62152;52.078;8.414;2022-09-09T07:25:56;99454.47;;;21.74;51.92
56514;BME280;62152;52.078;8.414;2022-09-09T07:27:42;99457.63;;;21.73;51.95
56514;BME280;62152;52.078;8.414;2022-09-09T07:29:26;99460.03;;;21.71;52.20
56514;BME280;62152;52.078;8.414;2022-09-09T07:31:14;99459.25;;;21.70;52.10
56514;BME280;62152;52.078;8.414;2022-09-09T07:32:59;99462.78;;;21.71;52.07
56514;BME280;62152;52.078;8.414;2022-09-09T07:34:47;99462.44;;;21.69;52.18
56514;BME280;62152;52.078;8.414;2022-09-09T07:36:33;99460.03;;;21.71;52.26
56514;BME280;62152;52.078;8.414;2022-09-09T07:38:19;99456.84;;;21.72;52.15
56514;BME280;62152;52.078;8.414;2022-09-09T07:40:05;99459.25;;;21.70;52.25
56514;BME280;62152;52.078;8.414;2022-09-09T07:41:50;99459.66;;;21.69;52.32
56514;BME280;62152;52.078;8.414;2022-09-09T07:43:38;99460.03;;;21.71;52.13
56514;BME280;62152;52.078;8.414;2022-09-09T07:45:23;99456.91;;;21.69;52.28
56514;BME280;62152;52.078;8.414;2022-09-09T07:47:10;99458.84;;;21.72;52.32
56514;BME280;62152;52.078;8.414;2022-09-09T07:48:59;99462.78;;;21.71;52.27
56514;BME280;62152;52.078;8.414;2022-09-09T07:50:49;99458.41;;;21.73;52.19
56514;BME280;62152;52.078;8.414;2022-09-09T07:52:34;99459.63;;;21.72;52.14
56514;BME280;62152;52.078;8.414;2022-09-09T07:54:21;99455.28;;;21.71;52.35
56514;BME280;62152;52.078;8.414;2022-09-09T07:56:09;99456.84;;;21.76;52.01
56514;BME280;62152;52.078;8.414;2022-09-09T07:57:56;99452.09;;;21.76;52.25
56514;BME280;62152;52.078;8.414;2022-09-09T07:59:41;99460.00;;;21.74;52.31
56514;BME280;62152;52.078;8.414;2022-09-09T08:01:29;99454.88;;;21.76;52.30
56514;BME280;62152;52.078;8.414;2022-09-09T08:03:14;99453.69;;;21.74;52.36
56514;BME280;62152;52.078;8.414;2022-09-09T08:04:59;99461.59;;;21.72;52.19
56514;BME280;62152;52.078;8.414;2022-09-09T08:06:49;99465.56;;;21.71;52.42
56514;BME280;62152;52.078;8.414;2022-09-09T08:08:36;99458.91;;;21.65;52.81
56514;BME280;62152;52.078;8.414;2022-09-09T08:10:23;99463.28;;;21.58;52.76
56514;BME280;62152;52.078;8.414;2022-09-09T08:12:10;99455.84;;;21.55;53.02
56514;BME280;62152;52.078;8.414;2022-09-09T08:13:56;99456.56;;;21.60;52.61
56514;BME280;62152;52.078;8.414;2022-09-09T08:15:41;99471.88;;;21.68;52.78
56514;BME280;62152;52.078;8.414;2022-09-09T08:17:26;99450.56;;;21.72;52.61
56514;BME280;62152;52.078;8.414;2022-09-09T08:19:24;99452.56;;;21.68;52.78
56514;BME280;62152;52.078;8.414;2022-09-09T08:21:14;99461.63;;;21.68;52.70
56514;BME280;62152;52.078;8.414;2022-09-09T08:23:02;99459.25;;;21.70;52.92
56514;BME280;62152;52.078;8.414;2022-09-09T08:24:46;99450.16;;;21.73;52.80
56514;BME280;62152;52.078;8.414;2022-09-09T08:26:33;99459.63;;;21.72;52.56
56514;BME280;62152;52.078;8.414;2022-09-09T08:28:19;99465.56;;;21.71;52.88
56514;BME280;62152;52.078;8.414;2022-09-09T08:30:04;99460.06;;;21.67;52.72
56514;BME280;62152;52.078;8.414;2022-09-09T08:31:52;99458.50;;;21.66;52.78
56514;BME280;62152;52.078;8.414;2022-09-09T08:33:39;99466.34;;;21.71;52.91
56514;BME280;62152;52.078;8.414;2022-09-09T08:35:24;99457.69;;;21.69;52.74
56514;BME280;62152;52.078;8.414;2022-09-09T08:37:09;99460.00;;;21.74;52.87
56514;BME280;62152;52.078;8.414;2022-09-09T08:38:58;99467.41;;;21.81;52.64
56514;BME280;62152;52.078;8.414;2022-09-09T08:40:50;99459.59;;;21.76;53.04
56514;BME280;62152;52.078;8.414;2022-09-09T08:42:46;99457.28;;;21.71;52.99
56514;BME280;62152;52.078;8.414;2022-09-09T08:44:56;99470.28;;;21.70;53.00
56514;BME280;62152;52.078;8.414;2022-09-09T08:46:55;99469.47;;;21.73;52.87
56514;BME280;62152;52.078;8.414;2022-09-09T08:48:52;99465.56;;;21.71;53.13
56514;BME280;62152;52.078;8.414;2022-09-09T08:50:43;99477.50;;;21.53;53.56
56514;BME280;62152;52.078;8.414;2022-09-09T08:52:40;99476.31;;;21.54;53.62
56514;BME280;62152;52.078;8.414;2022-09-09T08:54:34;99480.69;;;21.55;53.49
56514;BME280;62152;52.078;8.414;2022-09-09T08:56:24;99482.19;;;21.60;53.22
56514;BME280;62152;52.078;8.414;2022-09-09T08:58:15;99481.03;;;21.57;53.37
56514;BME280;62152;52.078;8.414;2022-09-09T09:00:03;99479.78;;;21.66;52.88
56514;BME280;62152;52.078;8.414;2022-09-09T09:02:00;99479.00;;;21.62;53.08
56514;BME280;62152;52.078;8.414;2022-09-09T09:04:02;99477.38;;;21.68;53.02
56514;BME280;62152;52.078;8.414;2022-09-09T09:06:03;99474.25;;;21.66;52.82
56514;BME280;62152;52.078;8.414;2022-09-09T09:08:00;99481.34;;;21.67;52.88
56514;BME280;62152;52.078;8.414;2022-09-09T09:10:00;99477.56;;;21.50;53.16
56514;BME280;62152;52.078;8.414;2022-09-09T09:11:54;99478.03;;;21.38;53.22
56514;BME280;62152;52.078;8.414;2022-09-09T09:13:48;99479.19;;;21.44;53.22
56514;BME280;62152;52.078;8.414;2022-09-09T09:15:38;99483.81;;;21.54;53.10
56514;BME280;62152;52.078;8.414;2022-09-09T09:17:27;99482.66;;;21.55;52.94
56514;BME280;62152;52.078;8.414;2022-09-09T09:19:17;99469.75;;;21.41;52.84
56514;BME280;62152;52.078;8.414;2022-09-09T09:21:12;99481.25;;;21.29;52.87
56514;BME280;62152;52.078;8.414;2022-09-09T09:23:03;99487.16;;;21.24;53.50
56514;BME280;62152;52.078;8.414;2022-09-09T09:24:55;99491.41;;;21.39;52.94
56514;BME280;62152;52.078;8.414;2022-09-09T09:26:43;99483.13;;;21.43;52.91
56514;BME280;62152;52.078;8.414;2022-09-09T09:28:31;99495.69;;;21.51;52.80
56514;BME280;62152;52.078;8.414;2022-09-09T09:30:29;99481.47;;;21.56;52.79
56514;BME280;62152;52.078;8.414;2022-09-09T09:32:21;99485.06;;;21.46;53.03
56514;BME280;62152;52.078;8.414;2022-09-09T09:34:08;99484.22;;;21.56;52.57
56514;BME280;62152;52.078;8.414;2022-09-09T09:35:54;99482.31;;;21.46;52.86
56514;BME280;62152;52.078;8.414;2022-09-09T09:37:41;99471.63;;;21.51;52.57
56514;BME280;62152;52.078;8.414;2022-09-09T09:39:29;99476.78;;;21.49;52.93
56514;BME280;62152;52.078;8.414;2022-09-09T09:41:29;99471.22;;;21.53;52.82